Time;durP1;ratioP1;P1;durP2;ratioP2;P2;SDS_P1;SDS_P2;PMS_P1;PMS_P2;Temp;Humidity;BMP_temperature;BMP_pressure;BME280_temperature;BME280_humidity;BME280_pressure;Samples;Min_cycle;Max_cycle;Signal;HPM_P1;HPM_P2
2022/09/15 00:01:15;;;;;;;4.00;2.30;;;13.50;99.90;;;;;;5110326;27;20047;-65
2022/09/15 00:03:41;;;;;;;4.53;2.50;;;13.50;99.90;;;;;;5113683;27;20488;-67
2022/09/15 00:06:07;;;;;;;3.88;2.63;;;13.40;99.90;;;;;;5108041;28;20493;-65
2022/09/15 00:08:33;;;;;;;3.45;2.50;;;13.40;99.90;;;;;;5113022;27;20096;-67
2022/09/15 00:11:14;;;;;;;4.10;2.60;;;13.40;99.90;;;;;;5110094;27;20043;-67
2022/09/15 00:13:40;;;;;;;4.28;2.53;;;13.30;99.90;;;;;;5121240;27;20432;-65
2022/09/15 00:16:07;;;;;;;3.10;2.53;;;13.30;99.90;;;;;;5129249;27;20038;-65
2022/09/15 00:18:34;;;;;;;4.15;2.30;;;13.20;99.90;;;;;;5118470;27;20040;-67
2022/09/15 00:21:05;;;;;;;8.40;2.50;;;13.20;99.90;;;;;;5097380;28;20043;-68
2022/09/15 00:23:30;;;;;;;2.88;2.50;;;13.20;99.90;;;;;;5110421;27;20035;-68
2022/09/15 00:25:56;;;;;;;3.35;2.40;;;13.10;99.90;;;;;;5106533;28;20450;-67
2022/09/15 00:28:22;;;;;;;3.05;2.38;;;13.10;99.90;;;;;;5120973;27;20050;-65
2022/09/15 00:30:50;;;;;;;7.10;3.30;;;13.10;99.90;;;;;;5108004;28;20047;-68
2022/09/15 00:33:17;;;;;;;4.65;3.30;;;13.10;99.90;;;;;;5106859;28;20031;-67
2022/09/15 00:35:45;;;;;;;5.68;3.85;;;13.10;99.90;;;;;;5107410;28;20064;-68
2022/09/15 00:38:13;;;;;;;3.60;3.30;;;13.10;99.90;;;;;;5110244;27;20051;-65
2022/09/15 00:40:44;;;;;;;4.78;3.90;;;13.10;99.90;;;;;;5108720;28;20478;-64
2022/09/15 00:43:10;;;;;;;6.28;4.30;;;13.20;99.90;;;;;;5117547;28;20066;-65
2022/09/15 00:45:36;;;;;;;6.57;3.80;;;13.20;99.90;;;;;;5113956;28;20512;-64
2022/09/15 00:48:04;;;;;;;6.05;3.72;;;13.20;99.90;;;;;;5114224;28;20184;-65
2022/09/15 00:50:31;;;;;;;7.45;3.72;;;13.10;99.90;;;;;;5108925;28;20622;-65
2022/09/15 00:53:04;;;;;;;8.82;3.65;;;13.20;99.90;;;;;;5121852;27;20046;-67
2022/09/15 00:55:38;;;;;;;8.63;4.47;;;13.20;99.90;;;;;;5111312;28;20039;-66
2022/09/15 00:58:07;;;;;;;7.75;3.60;;;13.20;99.90;;;;;;5119082;28;20047;-64
2022/09/15 01:00:33;;;;;;;6.45;3.15;;;13.30;99.90;;;;;;5109043;28;20032;-66
2022/09/15 01:03:00;;;;;;;8.95;3.80;;;13.30;99.90;;;;;;5105627;28;20071;-64
2022/09/15 01:05:30;;;;;;;8.88;3.83;;;13.30;99.90;;;;;;5116030;28;20043;-66
2022/09/15 01:07:59;;;;;;;5.88;3.50;;;13.30;99.90;;;;;;5112154;28;20044;-66
2022/09/15 01:10:28;;;;;;;6.50;3.50;;;13.30;99.90;;;;;;5109146;28;20450;-64
2022/09/15 01:12:56;;;;;;;7.13;3.92;;;13.30;99.90;;;;;;5100506;28;20048;-66
2022/09/15 01:15:28;;;;;;;7.72;3.45;;;13.30;99.90;;;;;;5112790;28;20054;-66
2022/09/15 01:18:02;;;;;;;9.53;3.20;;;13.40;99.90;;;;;;5104309;28;20082;-67
2022/09/15 01:20:55;;;;;;;5.75;2.85;;;13.30;99.90;;;;;;5107838;28;20501;-66
2022/09/15 01:23:27;;;;;;;7.40;2.85;;;13.40;99.90;;;;;;5108378;28;20039;-66
2022/09/15 01:26:10;;;;;;;5.60;2.63;;;13.40;99.90;;;;;;5107874;28;20067;-65
2022/09/15 01:29:04;;;;;;;6.63;2.50;;;13.40;99.90;;;;;;5114770;27;20083;-66
2022/09/15 01:34:51;;;;;;;5.63;2.25;;;13.30;99.90;;;;;;5106948;27;20075;-67
2022/09/15 01:37:22;;;;;;;4.00;2.03;;;13.30;99.90;;;;;;5125481;27;20055;-66
2022/09/15 01:39:51;;;;;;;7.00;2.38;;;13.30;99.90;;;;;;5121963;27;20059;-66
2022/09/15 01:42:18;;;;;;;5.55;2.67;;;13.20;99.90;;;;;;5109996;28;20071;-67
2022/09/15 01:44:50;;;;;;;5.43;2.10;;;13.20;99.90;;;;;;5114421;27;20092;-66
2022/09/15 01:47:19;;;;;;;5.22;2.17;;;13.20;99.90;;;;;;5106541;27;20040;-66
2022/09/15 01:49:55;;;;;;;9.13;2.33;;;13.20;99.90;;;;;;5110213;27;20428;-68
2022/09/15 01:52:23;;;;;;;5.22;2.17;;;13.20;99.90;;;;;;5110612;28;20054;-66
2022/09/15 01:54:57;;;;;;;7.22;2.67;;;13.20;99.90;;;;;;5104490;28;20032;-66
2022/09/15 01:57:23;;;;;;;4.75;2.13;;;13.20;99.90;;;;;;5127525;27;20055;-66
2022/09/15 01:59:50;;;;;;;8.75;2.40;;;13.20;99.90;;;;;;5115235;27;20043;-65
2022/09/15 02:02:24;;;;;;;4.95;2.17;;;13.20;99.90;;;;;;5109864;27;20040;-66
2022/09/15 02:04:54;;;;;;;5.35;2.30;;;13.20;99.90;;;;;;5109613;28;20093;-64
2022/09/15 02:07:30;;;;;;;3.40;1.77;;;13.20;99.90;;;;;;5091804;28;20096;-66
2022/09/15 02:10:10;;;;;;;6.45;2.33;;;13.20;99.90;;;;;;5119882;27;20107;-65
2022/09/15 02:13:06;;;;;;;5.82;2.15;;;13.20;99.90;;;;;;5092102;28;20122;-65
2022/09/15 02:15:41;;;;;;;5.00;2.10;;;13.20;99.90;;;;;;5123449;27;20043;-66
2022/09/15 02:18:11;;;;;;;5.35;2.20;;;13.20;99.90;;;;;;5109397;28;20039;-66
2022/09/15 02:21:07;;;;;;;4.65;2.30;;;13.20;99.90;;;;;;5116210;27;20114;-66
2022/09/15 02:23:42;;;;;;;6.32;2.50;;;13.30;99.90;;;;;;5104820;28;20122;-67
2022/09/15 02:26:12;;;;;;;7.22;2.80;;;13.30;99.90;;;;;;5109441;27;20048;-67
2022/09/15 02:28:41;;;;;;;6.80;2.80;;;13.30;99.90;;;;;;5112478;27;20114;-66
2022/09/15 02:31:12;;;;;;;7.30;2.83;;;13.30;99.90;;;;;;5130514;27;20039;-66
2022/09/15 02:33:46;;;;;;;5.82;2.55;;;13.30;99.90;;;;;;5114849;27;20397;-66
2022/09/15 02:36:18;;;;;;;6.90;2.97;;;13.30;99.90;;;;;;5110196;28;20058;-66
2022/09/15 02:38:54;;;;;;;6.88;2.88;;;13.30;99.90;;;;;;5111514;27;20059;-65
2022/09/15 02:41:20;;;;;;;7.97;3.20;;;13.30;99.90;;;;;;5111111;28;20067;-66
2022/09/15 02:43:47;;;;;;;7.10;2.63;;;13.20;99.90;;;;;;5109719;27;20071;-68
2022/09/15 02:46:17;;;;;;;7.90;2.75;;;13.20;99.90;;;;;;5108333;28;20069;-65
2022/09/15 02:48:43;;;;;;;6.53;2.55;;;13.20;99.90;;;;;;5109662;28;20060;-67
2022/09/15 02:51:09;;;;;;;9.13;2.58;;;13.20;99.90;;;;;;5120703;27;20126;-65
2022/09/15 02:53:35;;;;;;;5.07;2.10;;;13.30;99.90;;;;;;5119955;27;20039;-66
2022/09/15 02:56:02;;;;;;;7.25;1.80;;;13.30;99.90;;;;;;5123162;27;20108;-66
2022/09/15 02:58:27;;;;;;;5.95;1.92;;;13.30;99.90;;;;;;5109518;27;20035;-67
2022/09/15 03:00:55;;;;;;;10.63;2.85;;;13.30;99.90;;;;;;5130109;27;20088;-65
2022/09/15 03:03:21;;;;;;;7.57;1.48;;;13.40;99.90;;;;;;5116693;27;20417;-65
2022/09/15 03:05:46;;;;;;;5.03;1.30;;;13.40;99.90;;;;;;5112268;27;20043;-66
2022/09/15 03:08:12;;;;;;;4.78;1.20;;;13.50;99.90;;;;;;5118322;27;20468;-67
2022/09/15 03:10:38;;;;;;;6.90;1.10;;;13.50;99.90;;;;;;5108110;28;20418;-65
2022/09/15 03:13:04;;;;;;;4.97;1.35;;;13.50;99.90;;;;;;5123326;27;20044;-67
2022/09/15 03:15:29;;;;;;;4.72;0.98;;;13.60;99.90;;;;;;5096337;28;20050;-66
2022/09/15 03:17:55;;;;;;;5.57;1.00;;;13.60;99.90;;;;;;5116577;27;20075;-67
2022/09/15 03:20:29;;;;;;;8.52;1.13;;;13.60;99.90;;;;;;5110978;28;20039;-66
2022/09/15 03:22:54;;;;;;;5.03;0.90;;;13.60;99.90;;;;;;5119501;27;20078;-65
2022/09/15 03:25:20;;;;;;;7.70;1.30;;;13.60;99.90;;;;;;5109339;28;20067;-65
2022/09/15 03:27:46;;;;;;;6.15;1.20;;;13.60;99.90;;;;;;5091491;28;20541;-64
2022/09/15 03:30:13;;;;;;;4.95;1.10;;;13.60;99.90;;;;;;5108361;27;20513;-65
2022/09/15 03:32:39;;;;;;;4.53;0.90;;;13.70;99.90;;;;;;5116650;27;20111;-66
2022/09/15 03:35:05;;;;;;;7.13;1.10;;;13.70;99.90;;;;;;5110241;28;20126;-67
2022/09/15 03:37:31;;;;;;;9.25;1.10;;;13.70;99.90;;;;;;5109909;27;20439;-66
2022/09/15 03:39:57;;;;;;;7.97;0.90;;;13.70;99.90;;;;;;5108002;28;20039;-66
2022/09/15 03:42:23;;;;;;;6.18;0.80;;;13.70;99.90;;;;;;5109300;28;20767;-67
2022/09/15 03:44:48;;;;;;;6.53;0.95;;;13.80;99.90;;;;;;5111193;27;20184;-68
2022/09/15 03:47:14;;;;;;;5.93;1.20;;;13.80;99.90;;;;;;5107553;27;20082;-66
2022/09/15 03:49:40;;;;;;;5.45;0.90;;;13.80;99.90;;;;;;5091886;28;20044;-64
2022/09/15 03:52:05;;;;;;;5.55;1.00;;;13.80;99.90;;;;;;5111047;28;20478;-68
2022/09/15 03:54:31;;;;;;;6.70;1.05;;;13.80;99.90;;;;;;5113881;27;20051;-67
2022/09/15 03:56:58;;;;;;;5.68;1.00;;;13.80;99.90;;;;;;5103605;28;20048;-66
2022/09/15 03:59:23;;;;;;;2.90;0.73;;;13.80;99.90;;;;;;5108995;27;20108;-65
2022/09/15 04:01:49;;;;;;;6.65;0.80;;;13.80;99.90;;;;;;5112067;27;20039;-67
2022/09/15 04:04:16;;;;;;;6.20;1.02;;;13.80;99.90;;;;;;5108918;27;20469;-68
2022/09/15 04:06:42;;;;;;;4.40;0.85;;;13.80;99.90;;;;;;5129485;27;20099;-68
2022/09/15 04:09:09;;;;;;;4.60;0.70;;;13.80;99.90;;;;;;5106998;28;20048;-65
2022/09/15 04:11:35;;;;;;;5.95;0.98;;;13.80;99.90;;;;;;5122679;27;20414;-67
2022/09/15 04:14:01;;;;;;;4.45;0.70;;;13.80;99.90;;;;;;5108143;28;20039;-67
2022/09/15 04:16:27;;;;;;;5.47;1.00;;;13.70;99.90;;;;;;5127338;27;20027;-68
2022/09/15 04:18:54;;;;;;;1.40;0.52;;;13.70;99.90;;;;;;5107789;28;20114;-66
2022/09/15 04:21:21;;;;;;;4.32;0.77;;;13.70;99.90;;;;;;5093681;28;20044;-67
2022/09/15 04:23:47;;;;;;;4.63;0.98;;;13.70;99.90;;;;;;5110415;27;20118;-66
2022/09/15 04:26:21;;;;;;;4.93;0.90;;;13.60;99.90;;;;;;5108531;28;20495;-67
2022/09/15 04:28:47;;;;;;;5.32;0.80;;;13.60;99.90;;;;;;5091977;28;20052;-66
2022/09/15 04:31:14;;;;;;;4.75;0.85;;;13.60;99.90;;;;;;5108971;28;20055;-64
2022/09/15 04:33:41;;;;;;;4.50;0.80;;;13.60;99.90;;;;;;5106701;28;20034;-66
2022/09/15 04:36:16;;;;;;;4.35;0.70;;;13.60;99.90;;;;;;5108807;28;20169;-67
2022/09/15 04:38:42;;;;;;;4.45;1.08;;;13.50;99.90;;;;;;5095585;28;20107;-66
2022/09/15 04:41:08;;;;;;;2.95;0.70;;;13.50;99.90;;;;;;5116187;28;20036;-67
2022/09/15 04:43:34;;;;;;;6.07;0.93;;;13.50;99.90;;;;;;5107218;28;20043;-67
2022/09/15 04:45:59;;;;;;;5.80;0.90;;;13.60;99.90;;;;;;5116315;28;20050;-66
2022/09/15 04:48:25;;;;;;;4.95;0.90;;;13.50;99.90;;;;;;5111007;28;20048;-64
2022/09/15 04:50:51;;;;;;;5.72;0.95;;;13.50;99.90;;;;;;5118824;28;20044;-68
2022/09/15 04:53:17;;;;;;;6.05;0.93;;;13.50;99.90;;;;;;5116588;28;20032;-66
2022/09/15 04:55:43;;;;;;;4.63;0.80;;;13.50;99.90;;;;;;5110506;28;20040;-64
2022/09/15 04:58:09;;;;;;;4.97;0.95;;;13.50;99.90;;;;;;5105179;28;20116;-64
2022/09/15 05:00:44;;;;;;;10.20;1.80;;;13.50;99.90;;;;;;5107161;28;20070;-64
2022/09/15 05:03:12;;;;;;;7.28;0.93;;;13.50;99.90;;;;;;5111693;28;20486;-64
2022/09/15 05:05:38;;;;;;;3.67;1.02;;;13.50;99.90;;;;;;5110663;28;20055;-67
2022/09/15 05:08:04;;;;;;;5.55;1.00;;;13.50;99.90;;;;;;5123061;27;20039;-66
2022/09/15 05:10:30;;;;;;;8.75;1.23;;;13.50;99.90;;;;;;5095067;28;20036;-64
2022/09/15 05:12:56;;;;;;;5.13;0.95;;;13.50;99.90;;;;;;5119845;27;20105;-66
2022/09/15 05:15:23;;;;;;;7.10;1.42;;;13.50;99.90;;;;;;5116143;27;20127;-69
2022/09/15 05:17:48;;;;;;;4.57;0.88;;;13.50;99.90;;;;;;5110969;28;20068;-65
2022/09/15 05:20:14;;;;;;;5.90;1.25;;;13.50;99.90;;;;;;5120092;27;20036;-68
2022/09/15 05:22:40;;;;;;;2.92;0.77;;;13.50;99.90;;;;;;5117887;27;20058;-68
2022/09/15 05:25:06;;;;;;;5.93;0.80;;;13.50;99.90;;;;;;5114887;27;20051;-69
2022/09/15 05:27:32;;;;;;;3.85;0.80;;;13.50;99.90;;;;;;5106416;27;20045;-65
2022/09/15 05:29:58;;;;;;;8.25;0.98;;;13.50;99.90;;;;;;5106905;27;20044;-65
2022/09/15 05:32:24;;;;;;;10.13;1.30;;;13.50;99.90;;;;;;5105809;27;20054;-69
2022/09/15 05:34:50;;;;;;;4.90;1.00;;;13.50;99.90;;;;;;5112405;28;20118;-65
2022/09/15 05:37:15;;;;;;;7.20;1.38;;;13.50;99.90;;;;;;5110564;27;20040;-66
2022/09/15 05:39:41;;;;;;;4.47;1.05;;;13.50;99.90;;;;;;5130290;27;20043;-66
2022/09/15 05:42:07;;;;;;;8.55;1.02;;;13.50;99.90;;;;;;5123419;27;20366;-66
2022/09/15 05:44:33;;;;;;;6.68;0.90;;;13.50;99.90;;;;;;5115660;27;20047;-68
2022/09/15 05:46:59;;;;;;;3.47;0.80;;;13.60;99.90;;;;;;5115390;27;20059;-65
2022/09/15 05:49:25;;;;;;;6.43;1.13;;;13.50;99.90;;;;;;5115359;27;20485;-67
2022/09/15 05:51:51;;;;;;;4.80;0.90;;;13.50;99.90;;;;;;5125032;27;20046;-68
2022/09/15 05:54:16;;;;;;;4.07;0.95;;;13.60;99.90;;;;;;5109770;27;20054;-65
2022/09/15 05:56:42;;;;;;;6.25;1.10;;;13.60;99.90;;;;;;5106079;28;20036;-66
2022/09/15 05:59:07;;;;;;;2.67;0.70;;;13.60;99.90;;;;;;5120275;27;20054;-65
2022/09/15 06:01:34;;;;;;;8.68;1.52;;;13.60;99.90;;;;;;5110341;28;20437;-67
2022/09/15 06:03:59;;;;;;;7.97;1.27;;;13.70;99.90;;;;;;5092806;28;20040;-67
2022/09/15 06:06:25;;;;;;;5.57;1.00;;;13.70;99.90;;;;;;5128604;27;20133;-68
2022/09/15 06:08:54;;;;;;;7.85;1.00;;;13.70;99.90;;;;;;5124025;27;20072;-68
2022/09/15 06:11:32;;;;;;;4.68;0.95;;;13.70;99.90;;;;;;5131786;27;20129;-67
2022/09/15 06:13:59;;;;;;;4.75;0.93;;;13.80;99.90;;;;;;5095229;28;20051;-65
2022/09/15 06:16:25;;;;;;;8.48;1.17;;;13.80;99.90;;;;;;5111718;28;20096;-67
2022/09/15 06:18:52;;;;;;;5.95;1.10;;;13.80;99.90;;;;;;5107684;28;20039;-67
2022/09/15 06:21:22;;;;;;;7.47;1.00;;;13.80;99.90;;;;;;5111082;28;20046;-68
2022/09/15 06:23:53;;;;;;;7.00;1.10;;;13.80;99.90;;;;;;5112992;27;20452;-68
2022/09/15 06:26:19;;;;;;;5.07;1.05;;;13.90;99.90;;;;;;5111281;27;20047;-66
2022/09/15 06:28:51;;;;;;;7.78;1.00;;;13.90;99.90;;;;;;5111655;27;20035;-67
2022/09/15 06:31:17;;;;;;;5.80;1.00;;;13.90;99.90;;;;;;5112781;27;20039;-66
2022/09/15 06:33:45;;;;;;;6.28;1.20;;;13.90;99.90;;;;;;5115874;27;20023;-64
2022/09/15 06:36:13;;;;;;;9.70;1.30;;;14.00;99.90;;;;;;5110589;28;20128;-66
2022/09/15 06:38:39;;;;;;;7.63;1.13;;;14.00;99.90;;;;;;5131011;27;20450;-67
2022/09/15 06:41:05;;;;;;;11.38;1.30;;;14.00;99.90;;;;;;5097652;28;20049;-67
2022/09/15 06:43:31;;;;;;;10.98;1.20;;;14.10;99.90;;;;;;5112662;28;20111;-65
2022/09/15 06:46:04;;;;;;;6.03;1.20;;;14.10;99.90;;;;;;5115002;27;20039;-67
2022/09/15 06:48:31;;;;;;;5.68;0.90;;;14.20;99.90;;;;;;5110738;28;20085;-65
2022/09/15 06:50:57;;;;;;;5.20;0.88;;;14.20;99.90;;;;;;5131123;27;20039;-65
2022/09/15 06:53:23;;;;;;;6.65;1.20;;;14.20;99.90;;;;;;5123993;27;20035;-65
2022/09/15 06:55:49;;;;;;;6.63;0.90;;;14.30;99.90;;;;;;5110637;28;20051;-68
2022/09/15 06:58:14;;;;;;;4.95;1.10;;;14.40;99.90;;;;;;5116284;27;20043;-67
2022/09/15 07:00:40;;;;;;;5.75;0.93;;;14.40;99.90;;;;;;5107168;27;20043;-65
2022/09/15 07:03:06;;;;;;;6.55;1.48;;;14.40;99.90;;;;;;5131447;27;20117;-66
2022/09/15 07:05:32;;;;;;;8.45;1.27;;;14.50;99.90;;;;;;5130806;27;20050;-68
2022/09/15 07:07:57;;;;;;;9.07;1.50;;;14.60;99.90;;;;;;5093303;28;20082;-67
2022/09/15 07:10:23;;;;;;;7.50;1.25;;;14.60;99.90;;;;;;5112943;27;20069;-65
2022/09/15 07:12:48;;;;;;;6.72;0.85;;;14.70;99.90;;;;;;5130746;27;20481;-67
2022/09/15 07:15:14;;;;;;;4.63;1.00;;;14.80;99.90;;;;;;5114260;27;20043;-64
2022/09/15 07:17:40;;;;;;;5.75;1.20;;;14.80;99.90;;;;;;5117832;27;20122;-65
2022/09/15 07:20:06;;;;;;;6.63;1.20;;;14.90;99.90;;;;;;5111103;27;20091;-65
2022/09/15 07:22:32;;;;;;;7.95;1.10;;;14.90;99.90;;;;;;5118843;27;20481;-67
2022/09/15 07:24:57;;;;;;;7.68;1.25;;;15.00;99.90;;;;;;5127887;27;20051;-66
2022/09/15 07:27:25;;;;;;;6.72;1.00;;;15.10;99.90;;;;;;5117524;27;20024;-64
2022/09/15 07:29:51;;;;;;;11.52;1.73;;;15.10;99.90;;;;;;5093435;28;20047;-66
2022/09/15 07:32:17;;;;;;;7.88;1.40;;;15.30;99.90;;;;;;5117412;27;20043;-69
2022/09/15 07:34:42;;;;;;;6.15;1.00;;;15.30;99.90;;;;;;5109724;28;20390;-70
2022/09/15 07:37:08;;;;;;;7.38;1.27;;;15.40;99.90;;;;;;5113802;27;20438;-68
2022/09/15 07:39:33;;;;;;;5.80;1.13;;;15.40;99.90;;;;;;5112550;27;20043;-67
2022/09/15 07:41:59;;;;;;;7.18;1.27;;;15.50;99.90;;;;;;5112992;27;20443;-70
2022/09/15 07:44:24;;;;;;;4.10;1.10;;;15.60;99.90;;;;;;5117002;27;20047;-67
2022/09/15 07:46:50;;;;;;;7.28;0.93;;;15.70;99.90;;;;;;5116951;27;20039;-69
2022/09/15 07:49:16;;;;;;;6.80;1.10;;;15.70;99.90;;;;;;5111365;27;20182;-67
2022/09/15 07:51:42;;;;;;;7.28;1.17;;;15.70;99.90;;;;;;5116386;27;20036;-67
2022/09/15 07:54:07;;;;;;;5.88;1.10;;;15.70;99.90;;;;;;5113255;27;20043;-67
2022/09/15 07:56:33;;;;;;;3.97;0.90;;;15.80;99.90;;;;;;5109445;28;20065;-67
2022/09/15 07:58:58;;;;;;;7.47;1.08;;;15.80;99.90;;;;;;5121164;27;20054;-68
2022/09/15 08:01:24;;;;;;;5.25;1.17;;;15.90;99.90;;;;;;5112331;27;20070;-68
2022/09/15 08:03:51;;;;;;;8.07;1.17;;;16.00;99.90;;;;;;5109773;28;20042;-69
2022/09/15 08:06:20;;;;;;;6.10;1.25;;;16.10;99.90;;;;;;5121871;27;20047;-69
2022/09/15 08:08:46;;;;;;;5.60;1.00;;;16.10;99.90;;;;;;5111762;27;20035;-70
2022/09/15 08:11:18;;;;;;;5.95;1.10;;;16.20;99.90;;;;;;5120908;27;20111;-67
2022/09/15 08:13:48;;;;;;;5.05;0.88;;;16.10;99.90;;;;;;5109982;27;20107;-68
2022/09/15 08:16:22;;;;;;;4.53;0.88;;;16.10;99.90;;;;;;5129961;27;20074;-68
2022/09/15 08:18:50;;;;;;;5.25;0.90;;;16.00;99.90;;;;;;5116214;27;20039;-68
2022/09/15 08:21:19;;;;;;;5.82;1.25;;;16.00;99.90;;;;;;5115082;27;20083;-68
2022/09/15 08:23:48;;;;;;;9.63;1.58;;;16.10;99.90;;;;;;5115119;27;20100;-68
2022/09/15 08:26:14;;;;;;;7.78;1.00;;;16.20;99.90;;;;;;5129077;27;20119;-68
2022/09/15 08:28:40;;;;;;;5.03;0.85;;;16.30;99.90;;;;;;5126349;27;20050;-67
2022/09/15 08:31:10;;;;;;;4.60;0.90;;;16.40;99.90;;;;;;5117753;27;20179;-66
2022/09/15 08:33:36;;;;;;;5.20;0.90;;;16.60;99.90;;;;;;5113102;27;20587;-68
2022/09/15 08:36:10;;;;;;;6.22;0.80;;;16.60;99.90;;;;;;5100942;28;20146;-69
2022/09/15 08:38:43;;;;;;;7.35;1.10;;;16.80;99.90;;;;;;5102571;28;20118;-68
2022/09/15 08:41:27;;;;;;;9.90;1.20;;;16.80;99.90;;;;;;5109450;28;20494;-71
2022/09/15 08:44:22;;;;;;;11.18;1.25;;;16.80;99.90;;;;;;5103827;28;20028;-69
2022/09/15 08:47:00;;;;;;;5.75;0.80;;;16.90;99.90;;;;;;4994384;28;20467;-70
2022/09/15 08:49:33;;;;;;;5.38;1.45;;;16.90;99.90;;;;;;5010949;28;20045;-69
2022/09/15 08:52:03;;;;;;;5.25;0.88;;;16.90;99.90;;;;;;5011207;28;20136;-68
2022/09/15 08:54:31;;;;;;;15.30;2.25;;;17.00;99.90;;;;;;5010930;28;20084;-68
2022/09/15 08:56:59;;;;;;;5.90;1.08;;;17.10;99.90;;;;;;5011056;28;20451;-67
2022/09/15 08:59:31;;;;;;;4.45;0.85;;;17.10;99.90;;;;;;5010744;28;20515;-68
2022/09/15 09:02:07;;;;;;;;;;;17.10;99.90;;;;;;5012367;28;20053;-68
2022/09/15 09:04:56;;;;;;;3.70;0.60;;;17.10;99.90;;;;;;5009700;28;19917;-67
2022/09/15 09:07:53;;;;;;;5.20;1.05;;;17.10;99.90;;;;;;5009918;28;20104;-69
2022/09/15 09:10:30;;;;;;;6.30;0.80;;;17.40;99.90;;;;;;4993217;28;20398;-68
2022/09/15 09:12:59;;;;;;;5.50;1.05;;;17.70;99.90;;;;;;5013598;28;20396;-68
2022/09/15 09:15:58;;;;;;;11.15;1.40;;;18.00;99.90;;;;;;5030596;28;20068;-71
2022/09/15 09:18:50;;;;;;;5.57;0.82;;;18.40;99.90;;;;;;4994636;28;20041;-68
2022/09/15 09:21:53;;;;;;;4.97;0.80;;;18.50;99.90;;;;;;5025067;28;20049;-70
2022/09/15 09:24:37;;;;;;;7.68;1.00;;;18.40;99.90;;;;;;5075802;28;20317;-67
2022/09/15 09:27:04;;;;;;;3.13;0.80;;;18.30;99.80;;;;;;5125114;28;20476;-68
2022/09/15 09:29:35;;;;;;;5.43;0.85;;;18.10;99.90;;;;;;5089057;28;20031;-71
2022/09/15 09:32:02;;;;;;;4.63;1.00;;;18.00;99.90;;;;;;5122404;28;20038;-68
2022/09/15 09:34:44;;;;;;;3.38;0.90;;;17.90;99.90;;;;;;5108874;28;20096;-66
2022/09/15 09:37:13;;;;;;;4.88;0.70;;;17.80;99.90;;;;;;5111781;28;20063;-69
2022/09/15 09:39:39;;;;;;;4.07;0.82;;;17.70;99.90;;;;;;5093711;28;20040;-68
2022/09/15 09:42:11;;;;;;;7.53;1.00;;;17.60;99.90;;;;;;5107038;28;20043;-67
2022/09/15 09:44:38;;;;;;;3.38;0.73;;;17.70;99.90;;;;;;5108906;28;20547;-69
2022/09/15 09:47:04;;;;;;;3.80;0.70;;;17.70;99.90;;;;;;5108877;28;20047;-72
2022/09/15 09:49:33;;;;;;;5.43;0.80;;;17.90;99.90;;;;;;5116934;27;20472;-68
2022/09/15 09:52:02;;;;;;;5.43;0.70;;;18.10;99.90;;;;;;5111358;27;20031;-67
2022/09/15 09:54:30;;;;;;;6.35;1.20;;;18.20;99.90;;;;;;5129802;27;20102;-70
2022/09/15 09:57:28;;;;;;;4.07;0.82;;;18.10;99.90;;;;;;5119802;27;20048;-68
2022/09/15 09:59:54;;;;;;;3.50;0.60;;;18.00;99.20;;;;;;5106761;27;20040;-67
2022/09/15 10:02:27;;;;;;;4.55;0.80;;;18.00;99.90;;;;;;5108494;28;20035;-68
2022/09/15 10:05:04;;;;;;;3.90;0.77;;;18.00;99.90;;;;;;5112424;27;20513;-68
2022/09/15 10:07:32;;;;;;;7.60;0.70;;;18.00;99.70;;;;;;5109149;28;20079;-67
2022/09/15 10:09:59;;;;;;;5.85;0.80;;;18.00;99.90;;;;;;5108009;28;20518;-70
2022/09/15 10:12:32;;;;;;;6.55;0.82;;;18.40;99.90;;;;;;5110654;27;20050;-67
2022/09/15 10:15:04;;;;;;;3.95;0.90;;;18.60;99.90;;;;;;5115898;27;20050;-69
2022/09/15 10:17:42;;;;;;;2.95;0.55;;;18.50;99.70;;;;;;5119622;27;20133;-70
2022/09/15 10:20:27;;;;;;;4.32;0.50;;;18.30;97.50;;;;;;5116869;27;20055;-69
2022/09/15 10:23:16;;;;;;;1.23;0.40;;;18.10;96.10;;;;;;5111150;27;20035;-70
2022/09/15 10:25:42;;;;;;;9.63;0.63;;;18.00;97.00;;;;;;5113388;27;20093;-67
2022/09/15 10:28:08;;;;;;;1.33;0.40;;;17.90;97.80;;;;;;5131652;27;20082;-66
2022/09/15 10:30:35;;;;;;;2.25;0.45;;;17.90;98.30;;;;;;5113231;27;20051;-70
2022/09/15 10:33:18;;;;;;;4.28;0.60;;;17.90;98.00;;;;;;5112458;28;20023;-70
2022/09/15 10:35:44;;;;;;;3.88;0.80;;;17.90;97.90;;;;;;5116988;27;20043;-66
2022/09/15 10:38:15;;;;;;;6.95;0.90;;;17.80;98.70;;;;;;5119831;27;20551;-68
2022/09/15 10:40:52;;;;;;;6.25;0.68;;;17.80;98.90;;;;;;5117410;27;20039;-69
2022/09/15 10:43:42;;;;;;;3.13;0.80;;;17.90;99.40;;;;;;5115405;27;20046;-68
2022/09/15 10:46:18;;;;;;;5.10;0.70;;;17.90;99.10;;;;;;5122816;27;20384;-69
2022/09/15 10:48:55;;;;;;;3.45;0.60;;;18.00;99.40;;;;;;5108416;28;20100;-71
2022/09/15 10:51:45;;;;;;;5.53;0.68;;;18.10;98.80;;;;;;5126344;27;20038;-68
2022/09/15 10:54:28;;;;;;;2.30;0.52;;;18.20;98.60;;;;;;5110718;28;20498;-68
2022/09/15 10:57:03;;;;;;;3.78;0.70;;;18.30;98.70;;;;;;5113061;27;20112;-72
2022/09/15 10:59:38;;;;;;;6.88;0.90;;;18.20;97.70;;;;;;5127748;27;20397;-72
2022/09/15 11:02:28;;;;;;;4.13;0.60;;;18.20;97.00;;;;;;5115077;27;20044;-67
2022/09/15 11:05:22;;;;;;;4.90;0.60;;;18.40;96.70;;;;;;5105377;28;20092;-69
2022/09/15 11:08:22;;;;;;;1.98;0.40;;;18.90;96.80;;;;;;5118528;27;20039;-67
2022/09/15 11:10:57;;;;;;;7.40;1.23;;;19.40;95.70;;;;;;5012416;28;20045;-67
2022/09/15 11:13:50;;;;;;;4.88;0.52;;;19.80;95.90;;;;;;5011927;28;20050;-69
2022/09/15 11:16:45;;;;;;;4.38;0.68;;;20.10;96.20;;;;;;5011894;28;20135;-71
2022/09/15 11:19:22;;;;;;;6.63;0.85;;;20.40;96.40;;;;;;5012210;28;20049;-69
2022/09/15 11:21:53;;;;;;;4.07;0.73;;;20.00;96.40;;;;;;5012167;28;20385;-71
2022/09/15 11:24:24;;;;;;;3.13;0.60;;;19.80;96.70;;;;;;5010526;28;20122;-70
2022/09/15 11:27:18;;;;;;;5.32;0.80;;;19.70;97.30;;;;;;4989434;28;20065;-68
2022/09/15 11:29:54;;;;;;;6.28;1.10;;;19.70;97.80;;;;;;5002803;28;20622;-68
2022/09/15 11:32:57;;;;;;;3.10;0.93;;;19.50;97.90;;;;;;5035899;28;20122;-70
2022/09/15 11:35:43;;;;;;;4.05;0.80;;;19.20;97.60;;;;;;4950968;28;20068;-67
2022/09/15 11:38:41;;;;;;;4.10;0.93;;;19.10;97.30;;;;;;4953420;28;20458;-69
2022/09/15 11:41:35;;;;;;;5.38;1.05;;;19.00;97.00;;;;;;4953725;28;20521;-72
2022/09/15 11:44:09;;;;;;;8.48;0.90;;;18.60;97.00;;;;;;4953745;28;20054;-72
2022/09/15 11:46:53;;;;;;;4.55;0.77;;;18.40;97.30;;;;;;4955337;28;20085;-69
2022/09/15 11:49:24;;;;;;;3.03;0.75;;;18.40;97.40;;;;;;5031117;28;20128;-68
2022/09/15 11:51:59;;;;;;;4.15;0.80;;;18.70;97.90;;;;;;5042353;28;20098;-68
2022/09/15 11:54:33;;;;;;;2.00;0.60;;;18.80;97.50;;;;;;5048188;28;20914;-72
2022/09/15 11:56:59;;;;;;;5.57;0.70;;;18.90;97.00;;;;;;5031270;28;20052;-67
2022/09/15 11:59:40;;;;;;;3.13;0.68;;;19.00;96.80;;;;;;5031167;28;20044;-70
2022/09/15 12:02:33;;;;;;;4.33;0.83;;;18.90;96.20;;;;;;5030029;28;20522;-66
2022/09/15 12:05:07;;;;;;;4.45;1.15;;;18.70;96.00;;;;;;5028989;28;20056;-70
2022/09/15 12:07:42;;;;;;;5.13;0.95;;;18.50;96.00;;;;;;5031455;28;20056;-70
2022/09/15 12:10:19;;;;;;;3.33;0.75;;;18.40;96.60;;;;;;5029003;28;20037;-70
2022/09/15 12:12:46;;;;;;;4.28;0.82;;;18.30;96.60;;;;;;5121224;27;20048;-70
2022/09/15 12:15:17;;;;;;;3.53;0.80;;;18.30;97.10;;;;;;5091556;28;20532;-69
2022/09/15 12:17:53;;;;;;;5.07;0.45;;;18.30;97.00;;;;;;5107091;28;20110;-71
2022/09/15 12:20:36;;;;;;;4.15;0.60;;;18.20;96.10;;;;;;5108641;28;20051;-67
2022/09/15 12:23:20;;;;;;;2.00;0.50;;;18.20;96.70;;;;;;5089741;28;20393;-69
2022/09/15 12:26:13;;;;;;;2.35;0.50;;;18.10;96.60;;;;;;5103190;28;20044;-69
2022/09/15 12:28:53;;;;;;;3.05;0.60;;;18.00;96.50;;;;;;5091006;28;20094;-70
2022/09/15 12:31:22;;;;;;;3.78;0.60;;;17.80;97.00;;;;;;5108101;28;20603;-70
2022/09/15 12:33:55;;;;;;;5.65;0.77;;;17.70;98.00;;;;;;5109267;28;20043;-68
2022/09/15 12:36:41;;;;;;;3.70;0.73;;;17.60;98.70;;;;;;5094778;28;20373;-70
2022/09/15 12:39:30;;;;;;;5.00;0.70;;;17.60;99.80;;;;;;5127288;28;20370;-70
2022/09/15 12:42:11;;;;;;;2.75;0.57;;;17.70;99.80;;;;;;5110086;28;20048;-68
2022/09/15 12:44:48;;;;;;;2.15;0.52;;;17.60;99.40;;;;;;5106048;28;20375;-68
2022/09/15 12:47:23;;;;;;;2.47;0.50;;;17.80;99.20;;;;;;5092111;28;20063;-69
2022/09/15 12:49:51;;;;;;;4.30;0.75;;;17.80;99.30;;;;;;5104361;28;20052;-69
2022/09/15 12:52:19;;;;;;;3.10;0.68;;;17.70;99.20;;;;;;5105173;28;20115;-70
2022/09/15 12:54:52;;;;;;;4.95;0.70;;;17.80;99.30;;;;;;5103437;28;20074;-67
2022/09/15 12:57:32;;;;;;;5.50;0.80;;;17.90;99.40;;;;;;5125200;28;20036;-67
2022/09/15 13:00:19;;;;;;;5.72;0.80;;;17.80;99.10;;;;;;5105727;28;20493;-67
2022/09/15 13:02:50;;;;;;;5.88;1.33;;;17.90;99.90;;;;;;5112092;28;20128;-69
2022/09/15 13:05:40;;;;;;;4.20;0.90;;;17.90;99.90;;;;;;5110415;28;20072;-65
2022/09/15 13:08:32;;;;;;;3.95;1.02;;;17.80;99.70;;;;;;5108254;28;20043;-67
2022/09/15 13:11:00;;;;;;;7.90;1.42;;;18.00;99.90;;;;;;5115031;28;20056;-67
2022/09/15 13:14:13;;;;;;;5.50;0.90;;;18.00;99.90;;;;;;5113947;28;20071;-69